Scelkovo, Russia
Current Conditions -  °F | °C
As of 11:30 PM on Tuesday 27 Jan 2015 (Local Time) from UUEE Reporting Station
Light Snow Light Snow  
Wind Chill: 11°   Ceiling: 1100
Heat Index: 21°   Visibility: 6mi
Dew Point: 18°   Wind: 9mph
Humidity: 86%   Direction: 200°SSW
Pressure: 29.97"   Gusts: NA
Location:  56.15°N, 37.1°E
Report Text: UUEE 272030Z 20004MPS 9000 -SN OVC011 M06/M08 Q1015 7545024525450245 NOSIG
Loading
Personal Weather Stations






























Interactive Weather Map New forecast layout! Learn more

10-Day Weather Forecast

Advertisements
Track Severe Weather on mobile